Time;durP1;ratioP1;P1;durP2;ratioP2;P2;SDS_P1;SDS_P2;PMS_P1;PMS_P2;Temp;Humidity;BMP_temperature;BMP_pressure;BME280_temperature;BME280_humidity;BME280_pressure;Samples;Min_cycle;Max_cycle;Signal;HPM_P1;HPM_P2
2022/02/21 00:00:16;;;;;;;7.15;1.58;;;;;;;;;;5011795;28;20026;-79
2022/02/21 00:02:43;;;;;;;5.70;1.73;;;;;;;;;;5011664;28;20033;-78
2022/02/21 00:05:14;;;;;;;7.30;1.90;;;;;;;;;;5010576;28;20401;-78
2022/02/21 00:07:40;;;;;;;8.07;2.35;;;;;;;;;;5011795;28;20018;-78
2022/02/21 00:10:08;;;;;;;8.27;2.00;;;;;;;;;;5011707;28;20113;-78
2022/02/21 00:12:34;;;;;;;5.35;1.67;;;;;;;;;;5010461;28;20088;-78
2022/02/21 00:15:00;;;;;;;7.53;2.65;;;;;;;;;;5011675;28;20523;-78
2022/02/21 00:17:26;;;;;;;5.35;1.60;;;;;;;;;;5011669;28;20026;-78
2022/02/21 00:19:52;;;;;;;7.57;1.63;;;;;;;;;;5011622;28;20034;-78
2022/02/21 00:22:20;;;;;;;8.48;2.35;;;;;;;;;;5011767;28;20097;-79
2022/02/21 00:24:46;;;;;;;6.90;1.58;;;;;;;;;;5011911;28;20092;-78
2022/02/21 00:27:12;;;;;;;5.47;1.70;;;;;;;;;;5011608;28;20026;-78
2022/02/21 00:29:38;;;;;;;6.00;2.03;;;;;;;;;;5011498;28;20509;-78
2022/02/21 00:32:04;;;;;;;7.88;1.70;;;;;;;;;;5010317;28;20017;-78
2022/02/21 00:34:30;;;;;;;6.45;1.80;;;;;;;;;;5010260;28;20105;-78
2022/02/21 00:36:56;;;;;;;6.05;1.48;;;;;;;;;;5010310;28;20022;-79
2022/02/21 00:39:22;;;;;;;6.05;1.70;;;;;;;;;;5010063;28;20125;-78
2022/02/21 00:41:48;;;;;;;6.45;1.67;;;;;;;;;;5011832;28;20148;-78
2022/02/21 00:44:14;;;;;;;5.68;1.27;;;;;;;;;;5011284;28;20038;-78
2022/02/21 00:46:40;;;;;;;4.80;1.48;;;;;;;;;;5010180;28;20030;-78
2022/02/21 00:49:06;;;;;;;5.38;1.73;;;;;;;;;;5011962;28;20060;-78
2022/02/21 00:51:33;;;;;;;7.75;2.05;;;;;;;;;;5015153;28;20018;-78
2022/02/21 00:53:59;;;;;;;5.50;1.40;;;;;;;;;;5013760;28;20022;-78
2022/02/21 00:56:25;;;;;;;5.57;1.63;;;;;;;;;;5015043;28;20030;-78
2022/02/21 00:58:51;;;;;;;9.52;1.73;;;;;;;;;;5013686;28;20025;-78
2022/02/21 01:01:17;;;;;;;4.22;1.10;;;;;;;;;;5015164;28;20033;-78
2022/02/21 01:03:43;;;;;;;9.20;1.50;;;;;;;;;;5013773;28;20045;-79
2022/02/21 01:06:09;;;;;;;6.45;1.58;;;;;;;;;;5013230;28;20030;-78
2022/02/21 01:08:35;;;;;;;6.30;1.92;;;;;;;;;;5013671;28;20060;-79
2022/02/21 01:11:01;;;;;;;5.45;1.55;;;;;;;;;;5013434;28;20136;-79
2022/02/21 01:13:27;;;;;;;6.13;1.73;;;;;;;;;;5013316;28;20061;-79
2022/02/21 01:15:53;;;;;;;8.45;2.08;;;;;;;;;;5013363;28;20080;-78
2022/02/21 01:18:20;;;;;;;7.00;1.95;;;;;;;;;;5013626;28;20030;-79
2022/02/21 01:20:46;;;;;;;5.60;1.70;;;;;;;;;;5014599;28;20104;-79
2022/02/21 01:23:12;;;;;;;4.53;1.58;;;;;;;;;;5013182;28;20034;-78
2022/02/21 01:25:39;;;;;;;4.50;1.25;;;;;;;;;;5014457;28;20063;-79
2022/02/21 01:28:05;;;;;;;9.35;2.58;;;;;;;;;;5014830;28;20350;-78
2022/02/21 01:30:31;;;;;;;5.63;1.65;;;;;;;;;;5013053;28;20032;-77
2022/02/21 01:32:59;;;;;;;5.55;1.38;;;;;;;;;;5013075;28;20022;-80
2022/02/21 01:35:25;;;;;;;5.88;1.73;;;;;;;;;;5014237;28;20025;-78
2022/02/21 01:37:51;;;;;;;7.90;1.63;;;;;;;;;;5014344;28;20030;-79
2022/02/21 01:40:17;;;;;;;7.10;1.80;;;;;;;;;;5012863;28;20033;-80
2022/02/21 01:42:43;;;;;;;6.93;1.70;;;;;;;;;;5012681;28;20038;-79
2022/02/21 01:45:09;;;;;;;6.72;1.50;;;;;;;;;;5012803;28;20053;-78
2022/02/21 01:47:36;;;;;;;5.90;1.45;;;;;;;;;;5012737;28;20469;-79
2022/02/21 01:50:02;;;;;;;5.68;1.85;;;;;;;;;;5012690;28;20439;-79
2022/02/21 01:52:28;;;;;;;6.57;1.52;;;;;;;;;;5013960;28;20022;-79
2022/02/21 01:54:54;;;;;;;8.45;1.92;;;;;;;;;;5012742;28;20125;-79
2022/02/21 01:57:20;;;;;;;7.20;1.70;;;;;;;;;;5012926;28;20033;-79
2022/02/21 01:59:46;;;;;;;4.50;1.83;;;;;;;;;;5013258;28;20121;-80
2022/02/21 02:02:12;;;;;;;7.05;1.83;;;;;;;;;;5013501;28;20037;-78
2022/02/21 02:04:38;;;;;;;6.25;1.55;;;;;;;;;;5013763;28;20489;-78
2022/02/21 02:07:05;;;;;;;6.35;2.17;;;;;;;;;;5013654;28;20524;-78
2022/02/21 02:09:31;;;;;;;5.95;1.17;;;;;;;;;;5012341;28;20111;-78
2022/02/21 02:11:58;;;;;;;9.65;1.58;;;;;;;;;;5012359;28;20117;-78
2022/02/21 02:14:31;;;;;;;7.15;1.60;;;;;;;;;;5012504;28;20469;-78
2022/02/21 02:17:00;;;;;;;9.02;1.77;;;;;;;;;;5013439;28;20026;-78
2022/02/21 02:19:26;;;;;;;3.88;1.27;;;;;;;;;;5013454;28;20037;-78
2022/02/21 02:21:55;;;;;;;5.47;1.42;;;;;;;;;;5013728;28;20018;-78
2022/02/21 02:24:21;;;;;;;7.28;1.88;;;;;;;;;;5012251;28;20045;-78
2022/02/21 02:26:51;;;;;;;7.88;1.85;;;;;;;;;;5013501;28;20026;-78
2022/02/21 02:29:17;;;;;;;8.32;1.98;;;;;;;;;;5013223;28;20080;-78
2022/02/21 02:31:43;;;;;;;5.45;1.73;;;;;;;;;;5013196;28;20026;-78
2022/02/21 02:34:09;;;;;;;8.43;2.17;;;;;;;;;;5013093;28;20022;-78
2022/02/21 02:36:35;;;;;;;5.47;1.35;;;;;;;;;;5011901;28;20026;-79
2022/02/21 02:39:01;;;;;;;7.63;1.60;;;;;;;;;;5013112;28;20030;-78
2022/02/21 02:41:27;;;;;;;8.25;2.78;;;;;;;;;;5013015;28;20077;-78
2022/02/21 02:43:53;;;;;;;8.57;2.17;;;;;;;;;;5013187;28;20042;-78
2022/02/21 02:46:19;;;;;;;9.77;2.05;;;;;;;;;;5012946;28;20470;-79
2022/02/21 02:48:45;;;;;;;7.57;1.70;;;;;;;;;;5011575;28;20034;-79
2022/02/21 02:51:11;;;;;;;9.90;2.15;;;;;;;;;;5011566;28;20116;-79
2022/02/21 02:53:37;;;;;;;10.43;2.58;;;;;;;;;;5011496;28;20034;-79
2022/02/21 02:56:03;;;;;;;7.43;1.98;;;;;;;;;;5011470;28;20026;-79
2022/02/21 02:58:29;;;;;;;5.97;1.58;;;;;;;;;;5012829;28;20026;-78
2022/02/21 03:00:55;;;;;;;6.38;1.63;;;;;;;;;;5013055;28;20033;-78
2022/02/21 03:03:21;;;;;;;8.45;1.92;;;;;;;;;;5012503;28;20034;-79
2022/02/21 03:05:47;;;;;;;8.38;1.65;;;;;;;;;;5012567;28;20504;-79
2022/02/21 03:08:13;;;;;;;7.65;2.00;;;;;;;;;;5012520;28;20034;-79
2022/02/21 03:10:39;;;;;;;8.75;2.17;;;;;;;;;;5011260;28;20030;-78
2022/02/21 03:13:05;;;;;;;6.35;1.35;;;;;;;;;;5011324;28;20504;-79
2022/02/21 03:15:31;;;;;;;7.78;2.20;;;;;;;;;;5011190;28;20029;-79
2022/02/21 03:17:57;;;;;;;8.25;2.03;;;;;;;;;;5012700;28;20025;-78
2022/02/21 03:20:23;;;;;;;8.40;1.85;;;;;;;;;;5011386;28;20032;-79
2022/02/21 03:22:49;;;;;;;8.40;2.00;;;;;;;;;;5010980;28;20432;-79
2022/02/21 03:25:15;;;;;;;10.43;2.30;;;;;;;;;;5012550;28;20433;-78
2022/02/21 03:27:42;;;;;;;8.10;2.00;;;;;;;;;;5012255;28;20057;-78
2022/02/21 03:30:08;;;;;;;9.65;2.45;;;;;;;;;;5012263;28;20026;-79
2022/02/21 03:32:34;;;;;;;8.13;1.83;;;;;;;;;;5010902;28;20511;-79
2022/02/21 03:35:00;;;;;;;8.60;1.98;;;;;;;;;;5012103;28;20049;-78
2022/02/21 03:37:26;;;;;;;8.10;2.38;;;;;;;;;;5012411;28;20037;-79
2022/02/21 03:39:52;;;;;;;9.00;2.10;;;;;;;;;;5011794;28;20026;-79
2022/02/21 03:42:18;;;;;;;8.20;2.20;;;;;;;;;;5010683;28;20429;-79
2022/02/21 03:44:44;;;;;;;7.50;2.53;;;;;;;;;;5010745;28;20120;-79
2022/02/21 03:47:11;;;;;;;12.05;2.38;;;;;;;;;;5010832;28;20442;-79
2022/02/21 03:49:37;;;;;;;8.55;1.95;;;;;;;;;;5011935;28;20030;-79
2022/02/21 03:52:03;;;;;;;7.20;1.85;;;;;;;;;;5011911;28;20044;-79
2022/02/21 03:54:29;;;;;;;9.95;2.28;;;;;;;;;;5012235;28;20029;-79
2022/02/21 03:56:55;;;;;;;7.05;1.95;;;;;;;;;;5010896;28;20076;-79
2022/02/21 03:59:21;;;;;;;7.15;2.17;;;;;;;;;;5011829;28;20095;-79
2022/02/21 04:01:47;;;;;;;9.18;2.60;;;;;;;;;;5011783;28;20067;-79
2022/02/21 04:04:13;;;;;;;9.05;2.25;;;;;;;;;;5010281;28;20036;-79
2022/02/21 04:06:39;;;;;;;9.68;1.75;;;;;;;;;;5011841;28;20018;-78
2022/02/21 04:09:05;;;;;;;6.72;1.88;;;;;;;;;;5010582;28;20128;-79
2022/02/21 04:11:31;;;;;;;11.35;2.10;;;;;;;;;;5011767;28;20019;-78
2022/02/21 04:13:57;;;;;;;4.53;1.30;;;;;;;;;;5010798;28;20026;-79
2022/02/21 04:16:23;;;;;;;9.38;2.25;;;;;;;;;;5010497;28;20440;-80
2022/02/21 04:18:49;;;;;;;9.95;2.80;;;;;;;;;;5011617;28;20030;-79
2022/02/21 04:21:15;;;;;;;7.60;1.75;;;;;;;;;;5011623;28;20018;-79
2022/02/21 04:23:41;;;;;;;8.10;2.25;;;;;;;;;;5011536;28;20041;-80
2022/02/21 04:26:07;;;;;;;6.93;1.70;;;;;;;;;;5015603;28;20022;-80
2022/02/21 04:28:33;;;;;;;7.80;2.03;;;;;;;;;;5015527;28;20497;-79
2022/02/21 04:30:59;;;;;;;8.75;1.90;;;;;;;;;;5014453;28;20023;-79
2022/02/21 04:33:25;;;;;;;7.90;2.00;;;;;;;;;;5014395;28;20030;-79
2022/02/21 04:35:51;;;;;;;7.75;2.33;;;;;;;;;;5015426;28;20026;-78
2022/02/21 04:38:17;;;;;;;6.65;2.20;;;;;;;;;;5015315;28;20512;-79
2022/02/21 04:40:43;;;;;;;6.18;2.33;;;;;;;;;;5013922;28;20026;-79
2022/02/21 04:43:09;;;;;;;7.85;2.03;;;;;;;;;;5015267;28;20044;-79
2022/02/21 04:45:35;;;;;;;7.05;1.77;;;;;;;;;;5015223;28;20100;-79
2022/02/21 04:48:01;;;;;;;6.18;2.03;;;;;;;;;;5013879;28;20050;-79
2022/02/21 04:50:27;;;;;;;7.32;2.03;;;;;;;;;;5014251;28;20029;-79
2022/02/21 04:52:53;;;;;;;7.18;2.08;;;;;;;;;;5015124;28;20393;-79
2022/02/21 04:55:19;;;;;;;7.40;2.30;;;;;;;;;;5015016;28;20028;-78
2022/02/21 04:57:46;;;;;;;6.03;1.77;;;;;;;;;;5013701;28;20121;-79
2022/02/21 05:00:13;;;;;;;9.48;2.47;;;;;;;;;;5013601;28;20022;-79
2022/02/21 05:02:39;;;;;;;7.32;1.58;;;;;;;;;;5013492;28;20034;-78
2022/02/21 05:05:07;;;;;;;8.23;1.60;;;;;;;;;;5014889;28;20037;-79
2022/02/21 05:07:33;;;;;;;9.35;1.80;;;;;;;;;;5013593;28;20034;-78
2022/02/21 05:09:59;;;;;;;6.25;1.83;;;;;;;;;;5013787;28;20033;-79
2022/02/21 05:12:25;;;;;;;6.10;1.67;;;;;;;;;;5013465;28;20466;-79
2022/02/21 05:14:51;;;;;;;9.02;2.42;;;;;;;;;;5014673;28;20161;-79
2022/02/21 05:17:17;;;;;;;6.25;1.52;;;;;;;;;;5014612;28;20077;-79
2022/02/21 05:19:43;;;;;;;6.20;1.70;;;;;;;;;;5014524;28;20109;-78
2022/02/21 05:22:09;;;;;;;5.47;1.63;;;;;;;;;;5014536;28;20026;-79
2022/02/21 05:24:35;;;;;;;5.03;1.15;;;;;;;;;;5014388;28;20076;-79
2022/02/21 05:27:01;;;;;;;6.57;1.80;;;;;;;;;;5014705;28;20022;-79
2022/02/21 05:29:27;;;;;;;7.07;1.95;;;;;;;;;;5014745;28;20057;-79
2022/02/21 05:31:53;;;;;;;6.72;1.58;;;;;;;;;;5014358;28;20049;-79
2022/02/21 05:34:19;;;;;;;5.55;1.70;;;;;;;;;;5013984;28;20021;-79
2022/02/21 05:36:45;;;;;;;6.63;1.92;;;;;;;;;;5013477;28;20021;-78
2022/02/21 05:39:11;;;;;;;7.35;1.80;;;;;;;;;;5014088;28;20096;-78
2022/02/21 05:41:37;;;;;;;5.00;1.75;;;;;;;;;;5013602;28;20026;-78
2022/02/21 05:44:03;;;;;;;6.65;1.80;;;;;;;;;;5012785;28;20034;-78
2022/02/21 05:46:29;;;;;;;6.68;1.40;;;;;;;;;;5013052;28;20477;-78
2022/02/21 05:48:55;;;;;;;8.15;1.48;;;;;;;;;;5014071;28;20083;-80
2022/02/21 05:51:21;;;;;;;5.85;1.88;;;;;;;;;;5012717;28;20606;-79
2022/02/21 05:53:48;;;;;;;5.80;1.70;;;;;;;;;;5013592;28;20036;-78
2022/02/21 05:56:15;;;;;;;4.43;1.38;;;;;;;;;;5013941;28;20022;-79
2022/02/21 05:58:41;;;;;;;4.25;1.20;;;;;;;;;;5012646;28;20391;-79
2022/02/21 06:01:07;;;;;;;4.97;1.30;;;;;;;;;;5013183;28;20029;-79
2022/02/21 06:03:33;;;;;;;5.25;1.45;;;;;;;;;;5012243;28;20038;-79
2022/02/21 06:05:59;;;;;;;6.43;1.45;;;;;;;;;;5013472;28;20076;-81
2022/02/21 06:08:25;;;;;;;3.67;1.30;;;;;;;;;;5013701;28;20053;-79
2022/02/21 06:10:51;;;;;;;4.97;1.80;;;;;;;;;;5012074;28;20865;-78
2022/02/21 06:13:17;;;;;;;4.72;1.60;;;;;;;;;;5013573;28;20072;-78
2022/02/21 06:15:43;;;;;;;4.82;1.10;;;;;;;;;;5013500;28;20065;-78
2022/02/21 06:18:09;;;;;;;8.70;1.63;;;;;;;;;;5012941;28;20025;-78
2022/02/21 06:20:35;;;;;;;4.15;1.00;;;;;;;;;;5012195;28;20071;-78
2022/02/21 06:23:01;;;;;;;5.35;1.50;;;;;;;;;;5000187;28;20029;-77
2022/02/21 06:25:28;;;;;;;4.07;1.25;;;;;;;;;;5013172;28;20413;-78
2022/02/21 06:27:54;;;;;;;4.32;1.30;;;;;;;;;;5012787;28;20088;-79
2022/02/21 06:30:20;;;;;;;5.05;1.58;;;;;;;;;;5012871;28;20040;-79
2022/02/21 06:32:46;;;;;;;7.43;1.80;;;;;;;;;;5012351;28;20034;-78
2022/02/21 06:35:12;;;;;;;6.65;1.48;;;;;;;;;;5013209;28;20393;-78
2022/02/21 06:37:41;;;;;;;6.82;1.50;;;;;;;;;;5013008;28;20029;-81
2022/02/21 06:40:08;;;;;;;5.40;1.20;;;;;;;;;;4993498;28;20042;-78
2022/02/21 06:42:34;;;;;;;5.90;1.67;;;;;;;;;;4993390;28;20022;-78
2022/02/21 06:45:00;;;;;;;5.63;1.45;;;;;;;;;;5008109;28;20036;-78
2022/02/21 06:47:26;;;;;;;5.97;1.27;;;;;;;;;;5011464;28;20022;-78
2022/02/21 06:49:52;;;;;;;6.68;1.92;;;;;;;;;;5012870;28;20030;-80
2022/02/21 06:52:18;;;;;;;9.10;1.23;;;;;;;;;;5012306;28;20026;-79
2022/02/21 06:54:44;;;;;;;8.45;1.48;;;;;;;;;;5012815;28;20117;-77
2022/02/21 06:57:10;;;;;;;7.93;1.40;;;;;;;;;;5012040;28;20026;-77
2022/02/21 06:59:36;;;;;;;5.95;1.55;;;;;;;;;;5012398;28;20050;-77
2022/02/21 07:02:02;;;;;;;5.03;1.42;;;;;;;;;;5012791;28;20073;-77
2022/02/21 07:04:28;;;;;;;5.13;1.17;;;;;;;;;;5012993;28;20041;-79
2022/02/21 07:06:54;;;;;;;5.07;1.20;;;;;;;;;;5012227;28;20033;-77
2022/02/21 07:09:20;;;;;;;6.10;1.58;;;;;;;;;;5012522;28;20030;-77
2022/02/21 07:11:46;;;;;;;6.15;1.58;;;;;;;;;;5012441;28;20062;-80
2022/02/21 07:14:12;;;;;;;8.57;1.40;;;;;;;;;;5012596;28;20061;-83
2022/02/21 07:16:38;;;;;;;10.35;1.95;;;;;;;;;;5010878;28;20067;-77
2022/02/21 07:19:04;;;;;;;7.15;1.65;;;;;;;;;;5012431;28;20022;-78
2022/02/21 07:21:30;;;;;;;6.20;1.45;;;;;;;;;;5010615;28;20033;-75
2022/02/21 07:23:56;;;;;;;6.10;1.52;;;;;;;;;;5009961;28;20037;-77
2022/02/21 07:26:22;;;;;;;8.60;1.55;;;;;;;;;;5010392;28;20378;-78
2022/02/21 07:28:48;;;;;;;7.05;1.30;;;;;;;;;;5012265;28;20029;-77
2022/02/21 07:31:14;;;;;;;6.15;1.83;;;;;;;;;;5012181;28;20030;-77
2022/02/21 07:33:40;;;;;;;5.32;1.23;;;;;;;;;;5012363;28;20030;-77
2022/02/21 07:36:06;;;;;;;6.85;1.33;;;;;;;;;;5010926;28;20100;-77
2022/02/21 07:38:32;;;;;;;7.68;2.05;;;;;;;;;;5012325;28;20489;-77
2022/02/21 07:40:58;;;;;;;6.97;1.92;;;;;;;;;;5011579;28;20030;-77
2022/02/21 07:43:24;;;;;;;6.57;1.63;;;;;;;;;;5009964;28;20056;-78
2022/02/21 07:45:50;;;;;;;8.48;1.63;;;;;;;;;;5011400;28;20022;-77
2022/02/21 07:48:17;;;;;;;9.05;2.05;;;;;;;;;;5013578;28;20065;-78
2022/02/21 07:50:43;;;;;;;7.15;1.40;;;;;;;;;;5014002;28;20029;-78
2022/02/21 07:53:09;;;;;;;7.30;1.67;;;;;;;;;;5009314;28;20493;-77
2022/02/21 07:55:35;;;;;;;6.72;1.52;;;;;;;;;;5011906;28;20041;-77
2022/02/21 07:58:01;;;;;;;7.30;2.03;;;;;;;;;;5011260;28;20374;-78
2022/02/21 08:00:27;;;;;;;8.23;2.00;;;;;;;;;;5011864;28;20034;-78
2022/02/21 08:02:53;;;;;;;9.98;1.88;;;;;;;;;;5011805;28;20041;-78
2022/02/21 08:05:19;;;;;;;5.65;2.03;;;;;;;;;;5011295;28;20041;-78
2022/02/21 08:07:46;;;;;;;4.78;1.40;;;;;;;;;;5011318;28;20032;-77
2022/02/21 08:10:12;;;;;;;10.02;1.65;;;;;;;;;;5011778;28;20022;-77
2022/02/21 08:12:38;;;;;;;11.90;2.22;;;;;;;;;;5011260;28;20512;-78
2022/02/21 08:15:05;;;;;;;7.03;1.35;;;;;;;;;;5010472;28;20058;-78
2022/02/21 08:17:41;;;;;;;7.18;1.88;;;;;;;;;;5010889;28;20394;-78
2022/02/21 08:20:07;;;;;;;7.90;1.88;;;;;;;;;;5011433;28;20053;-78
2022/02/21 08:22:33;;;;;;;6.50;1.63;;;;;;;;;;5010187;28;20030;-79
2022/02/21 08:24:59;;;;;;;8.02;1.65;;;;;;;;;;5000633;28;20109;-78
2022/02/21 08:27:25;;;;;;;7.25;1.48;;;;;;;;;;5009627;28;20034;-78
2022/02/21 08:29:51;;;;;;;8.55;2.05;;;;;;;;;;5011098;28;20092;-78
2022/02/21 08:32:18;;;;;;;5.72;1.48;;;;;;;;;;5011368;28;20477;-78
2022/02/21 08:34:44;;;;;;;4.28;1.20;;;;;;;;;;5011599;28;20557;-79
2022/02/21 08:37:12;;;;;;;6.65;2.13;;;;;;;;;;5010870;28;20504;-78
2022/02/21 08:39:38;;;;;;;8.60;1.85;;;;;;;;;;5010121;28;20033;-78
2022/02/21 08:42:04;;;;;;;7.97;1.80;;;;;;;;;;5011798;28;20026;-78
2022/02/21 08:44:31;;;;;;;7.28;1.75;;;;;;;;;;5009979;28;20033;-79
2022/02/21 08:46:57;;;;;;;6.13;2.10;;;;;;;;;;5011203;28;20030;-79
2022/02/21 08:49:23;;;;;;;10.18;2.20;;;;;;;;;;5010081;28;20034;-78
2022/02/21 08:51:49;;;;;;;8.50;2.40;;;;;;;;;;5009570;28;20033;-78
2022/02/21 08:54:19;;;;;;;6.97;1.67;;;;;;;;;;5010794;28;20032;-78
2022/02/21 08:56:45;;;;;;;9.15;2.45;;;;;;;;;;5009667;28;20616;-78
2022/02/21 08:59:11;;;;;;;7.03;1.88;;;;;;;;;;5010135;28;20036;-78
2022/02/21 09:01:42;;;;;;;8.65;2.42;;;;;;;;;;5009581;28;20402;-78
2022/02/21 09:04:08;;;;;;;8.25;2.10;;;;;;;;;;5010755;28;20117;-78
2022/02/21 09:06:34;;;;;;;7.03;1.90;;;;;;;;;;5010959;28;20076;-78
2022/02/21 09:09:00;;;;;;;7.88;2.20;;;;;;;;;;5010556;28;20034;-79
2022/02/21 09:11:26;;;;;;;10.98;2.67;;;;;;;;;;5012646;28;20087;-79
2022/02/21 09:13:52;;;;;;;8.80;2.10;;;;;;;;;;5014107;28;20401;-78
2022/02/21 09:16:18;;;;;;;11.18;2.28;;;;;;;;;;5014176;28;20025;-79
2022/02/21 09:18:44;;;;;;;7.93;2.53;;;;;;;;;;5014451;28;20029;-78
2022/02/21 09:21:10;;;;;;;11.13;2.40;;;;;;;;;;5014007;28;20080;-79
2022/02/21 09:23:36;;;;;;;10.98;2.67;;;;;;;;;;5014576;28;20067;-78
2022/02/21 09:26:03;;;;;;;8.80;2.42;;;;;;;;;;5013861;28;20041;-78
2022/02/21 09:28:29;;;;;;;11.75;2.05;;;;;;;;;;5012451;28;20113;-78
2022/02/21 09:30:55;;;;;;;10.45;2.58;;;;;;;;;;5014493;28;20100;-79
2022/02/21 09:33:22;;;;;;;9.77;3.03;;;;;;;;;;5013971;28;20014;-78
2022/02/21 09:35:48;;;;;;;10.25;2.50;;;;;;;;;;5013063;28;20034;-78
2022/02/21 09:38:14;;;;;;;11.02;2.83;;;;;;;;;;5012793;28;20482;-78
2022/02/21 09:40:41;;;;;;;8.93;2.45;;;;;;;;;;5012944;28;20052;-78
2022/02/21 09:43:08;;;;;;;10.57;2.85;;;;;;;;;;5011944;28;20040;-78
2022/02/21 09:45:35;;;;;;;10.30;2.65;;;;;;;;;;5013873;28;20505;-78
2022/02/21 09:48:02;;;;;;;8.70;2.20;;;;;;;;;;5013965;28;20024;-79
2022/02/21 09:50:28;;;;;;;12.80;3.20;;;;;;;;;;5013391;28;20476;-78
2022/02/21 09:53:00;;;;;;;12.88;2.42;;;;;;;;;;5014087;28;20068;-78
2022/02/21 09:55:27;;;;;;;11.13;2.42;;;;;;;;;;5014023;28;20026;-78
2022/02/21 09:57:53;;;;;;;8.45;2.22;;;;;;;;;;5013669;28;20061;-78
2022/02/21 10:00:20;;;;;;;12.40;2.75;;;;;;;;;;5013846;28;20439;-78
2022/02/21 10:02:47;;;;;;;10.70;2.70;;;;;;;;;;5011744;28;20034;-79
2022/02/21 10:05:26;;;;;;;14.68;3.35;;;;;;;;;;5012599;28;20030;-79
2022/02/21 10:07:53;;;;;;;11.13;3.00;;;;;;;;;;5011969;28;20030;-79
2022/02/21 10:10:20;;;;;;;10.65;3.03;;;;;;;;;;5011123;28;20401;-78
2022/02/21 10:12:45;;;;;;;8.60;2.25;;;;;;;;;;5011719;28;20034;-78
2022/02/21 10:15:13;;;;;;;13.57;3.10;;;;;;;;;;5013658;28;20033;-78
2022/02/21 10:17:39;;;;;;;12.18;3.17;;;;;;;;;;5013160;28;20025;-77
2022/02/21 10:20:05;;;;;;;11.32;2.83;;;;;;;;;;5013786;28;20440;-78
2022/02/21 10:22:34;;;;;;;13.00;3.10;;;;;;;;;;5012829;28;20029;-78
2022/02/21 10:25:01;;;;;;;10.43;3.03;;;;;;;;;;5011640;28;20393;-77
2022/02/21 10:27:29;;;;;;;11.00;2.95;;;;;;;;;;5013450;28;20018;-77
2022/02/21 10:29:55;;;;;;;12.18;3.38;;;;;;;;;;5012920;28;20037;-77
2022/02/21 10:32:26;;;;;;;15.18;4.10;;;;;;;;;;5013570;28;20030;-78
2022/02/21 10:34:53;;;;;;;11.15;3.15;;;;;;;;;;5012941;28;20022;-77
2022/02/21 10:37:27;;;;;;;12.98;3.00;;;;;;;;;;5013336;28;20127;-77
2022/02/21 10:40:05;;;;;;;13.80;3.35;;;;;;;;;;5011830;28;20048;-78
2022/02/21 10:42:32;;;;;;;12.52;3.50;;;;;;;;;;5011759;28;20030;-78
2022/02/21 10:45:09;;;;;;;11.88;3.58;;;;;;;;;;5010682;28;20040;-78
2022/02/21 10:47:35;;;;;;;12.55;3.22;;;;;;;;;;5012438;28;20044;-78
2022/02/21 10:50:03;;;;;;;17.63;4.25;;;;;;;;;;5011149;28;20481;-78
2022/02/21 10:52:37;;;;;;;13.40;3.63;;;;;;;;;;5012905;28;20018;-77
2022/02/21 10:55:05;;;;;;;11.40;3.20;;;;;;;;;;5012794;28;20153;-78
2022/02/21 10:57:38;;;;;;;15.35;3.83;;;;;;;;;;5010169;28;20042;-78
2022/02/21 11:00:05;;;;;;;11.50;3.40;;;;;;;;;;5013094;28;20088;-78
2022/02/21 11:02:32;;;;;;;11.60;3.22;;;;;;;;;;5011708;28;20442;-78
2022/02/21 11:05:01;;;;;;;11.80;3.45;;;;;;;;;;5012101;28;20029;-78
2022/02/21 11:07:27;;;;;;;12.93;3.75;;;;;;;;;;4993172;28;20377;-78
2022/02/21 11:09:59;;;;;;;14.27;4.35;;;;;;;;;;4993026;28;20101;-78
2022/02/21 11:12:29;;;;;;;15.10;4.00;;;;;;;;;;5006253;28;20117;-78
2022/02/21 11:14:56;;;;;;;13.02;4.07;;;;;;;;;;5012329;28;20026;-78
2022/02/21 11:17:22;;;;;;;11.70;3.42;;;;;;;;;;5011976;28;20029;-78
2022/02/21 11:19:49;;;;;;;14.05;3.88;;;;;;;;;;5010743;28;20022;-78
2022/02/21 11:22:18;;;;;;;14.35;3.90;;;;;;;;;;5011205;28;20072;-78
2022/02/21 11:24:47;;;;;;;15.20;4.40;;;;;;;;;;5011654;28;20069;-77
2022/02/21 11:27:34;;;;;;;17.45;3.75;;;;;;;;;;5011875;28;20033;-78
2022/02/21 11:30:11;;;;;;;16.00;4.07;;;;;;;;;;5010928;28;20401;-77
2022/02/21 11:32:40;;;;;;;17.77;4.68;;;;;;;;;;5011967;28;20025;-78
2022/02/21 11:35:10;;;;;;;17.65;4.50;;;;;;;;;;5011012;28;20033;-78
2022/02/21 11:37:36;;;;;;;19.85;3.90;;;;;;;;;;5011229;28;20022;-78
2022/02/21 11:40:04;;;;;;;14.07;3.85;;;;;;;;;;5011978;28;20058;-78
2022/02/21 11:42:33;;;;;;;16.50;4.15;;;;;;;;;;5010800;28;20026;-78
2022/02/21 11:44:59;;;;;;;20.17;5.25;;;;;;;;;;5010266;28;20559;-78
2022/02/21 11:47:42;;;;;;;17.63;4.60;;;;;;;;;;5011593;28;20366;-77
2022/02/21 11:50:20;;;;;;;11.52;3.42;;;;;;;;;;5011507;28;20026;-78
2022/02/21 11:52:50;;;;;;;12.48;3.53;;;;;;;;;;5008230;28;20034;-77
2022/02/21 11:55:39;;;;;;;12.48;3.15;;;;;;;;;;5011797;28;20022;-79
2022/02/21 11:58:14;;;;;;;15.70;4.05;;;;;;;;;;5012849;28;20466;-78
2022/02/21 12:00:54;;;;;;;14.88;3.55;;;;;;;;;;5012627;28;20018;-78
2022/02/21 12:03:21;;;;;;;14.45;3.70;;;;;;;;;;5010684;28;20042;-76
2022/02/21 12:06:07;;;;;;;11.98;3.58;;;;;;;;;;5014233;28;20025;-77
2022/02/21 12:08:33;;;;;;;12.95;4.03;;;;;;;;;;5014202;28;20536;-76
2022/02/21 12:11:02;;;;;;;13.45;4.05;;;;;;;;;;5011985;28;20054;-77
2022/02/21 12:13:32;;;;;;;19.13;5.10;;;;;;;;;;5010542;28;20366;-76
2022/02/21 12:16:02;;;;;;;19.58;4.95;;;;;;;;;;5011679;28;20099;-76
2022/02/21 12:18:31;;;;;;;14.00;4.20;;;;;;;;;;5010855;28;20381;-76
2022/02/21 12:21:18;;;;;;;16.40;4.95;;;;;;;;;;5009994;28;20437;-76
2022/02/21 12:23:43;;;;;;;;;;;;;;;;;;5011330;28;20044;-76
2022/02/21 12:26:09;;;;;;;13.52;4.90;;;;;;;;;;5010396;28;20375;-76
2022/02/21 12:28:35;;;;;;;14.52;4.55;;;;;;;;;;5011585;28;20022;-76
2022/02/21 12:31:02;;;;;;;15.85;4.75;;;;;;;;;;5010832;28;20022;-76
2022/02/21 12:33:29;;;;;;;17.08;4.53;;;;;;;;;;5010015;28;20427;-76
2022/02/21 12:35:57;;;;;;;13.40;3.83;;;;;;;;;;5011685;28;20030;-76
2022/02/21 12:38:24;;;;;;;17.17;4.45;;;;;;;;;;5010968;28;20444;-76
2022/02/21 12:40:54;;;;;;;13.77;4.28;;;;;;;;;;5010255;28;20024;-76
2022/02/21 12:43:20;;;;;;;16.65;3.97;;;;;;;;;;5011074;28;20049;-76
2022/02/21 12:45:46;;;;;;;13.57;4.20;;;;;;;;;;5014175;28;20477;-77
2022/02/21 12:48:12;;;;;;;13.07;3.88;;;;;;;;;;5014758;28;20030;-76
2022/02/21 12:50:40;;;;;;;13.88;3.97;;;;;;;;;;5014781;28;20077;-76
2022/02/21 12:53:08;;;;;;;11.63;2.95;;;;;;;;;;5013051;28;20032;-76
2022/02/21 12:55:44;;;;;;;14.63;3.72;;;;;;;;;;5014434;28;20508;-76
2022/02/21 12:58:11;;;;;;;10.63;3.35;;;;;;;;;;5015369;28;20033;-76
2022/02/21 13:00:37;;;;;;;12.00;3.55;;;;;;;;;;5015150;28;20072;-76
2022/02/21 13:03:03;;;;;;;12.65;3.30;;;;;;;;;;5013570;28;20034;-76
2022/02/21 13:05:29;;;;;;;11.35;3.28;;;;;;;;;;5013225;28;20030;-76
2022/02/21 13:07:55;;;;;;;10.52;2.95;;;;;;;;;;5013094;28;20075;-76
2022/02/21 13:10:21;;;;;;;9.75;3.15;;;;;;;;;;5014768;28;20021;-76
2022/02/21 13:12:49;;;;;;;11.25;3.13;;;;;;;;;;5014504;28;20030;-76
2022/02/21 13:15:15;;;;;;;10.07;3.13;;;;;;;;;;5014185;28;20489;-76
2022/02/21 13:17:42;;;;;;;9.02;3.47;;;;;;;;;;5014705;28;20025;-76
2022/02/21 13:20:11;;;;;;;8.15;3.13;;;;;;;;;;5014729;28;20026;-76
2022/02/21 13:22:38;;;;;;;8.98;3.28;;;;;;;;;;5013474;28;20055;-76
2022/02/21 13:25:05;;;;;;;9.18;2.72;;;;;;;;;;5014495;28;20384;-76
2022/02/21 13:27:33;;;;;;;12.50;3.05;;;;;;;;;;5014566;28;20026;-77
2022/02/21 13:29:59;;;;;;;12.27;3.67;;;;;;;;;;5013160;28;20022;-76
2022/02/21 13:32:29;;;;;;;10.30;2.85;;;;;;;;;;5013163;28;20022;-76
2022/02/21 13:34:58;;;;;;;9.88;2.97;;;;;;;;;;5012314;28;20025;-76
2022/02/21 13:37:33;;;;;;;12.27;2.63;;;;;;;;;;5013824;28;20057;-76
2022/02/21 13:40:03;;;;;;;9.07;2.70;;;;;;;;;;5012784;28;20482;-76
2022/02/21 13:42:29;;;;;;;8.32;2.78;;;;;;;;;;5014074;28;20057;-77
2022/02/21 13:45:14;;;;;;;13.90;3.58;;;;;;;;;;5014133;28;20034;-76
2022/02/21 13:47:40;;;;;;;7.50;2.80;;;;;;;;;;5014438;28;20121;-76
2022/02/21 13:50:06;;;;;;;8.98;2.25;;;;;;;;;;5012491;28;20108;-76
2022/02/21 13:52:32;;;;;;;8.00;2.22;;;;;;;;;;5013589;28;20068;-76
2022/02/21 13:54:58;;;;;;;9.45;2.83;;;;;;;;;;5013387;28;20066;-76
2022/02/21 13:57:24;;;;;;;11.05;2.92;;;;;;;;;;5011507;28;20030;-76
2022/02/21 13:59:51;;;;;;;10.23;2.90;;;;;;;;;;5011980;28;20033;-76
2022/02/21 14:02:23;;;;;;;8.25;2.35;;;;;;;;;;5013427;28;20029;-76
2022/02/21 14:04:50;;;;;;;8.43;2.70;;;;;;;;;;5011691;28;20100;-76
2022/02/21 14:07:16;;;;;;;9.13;2.63;;;;;;;;;;5012757;28;20026;-77
2022/02/21 14:09:42;;;;;;;10.60;2.83;;;;;;;;;;5013480;28;20022;-76
2022/02/21 14:12:12;;;;;;;8.18;2.80;;;;;;;;;;5013740;28;20034;-76
2022/02/21 14:14:38;;;;;;;9.93;2.85;;;;;;;;;;5013771;28;20482;-76
2022/02/21 14:17:04;;;;;;;9.55;2.97;;;;;;;;;;5013515;28;20026;-76
2022/02/21 14:19:30;;;;;;;8.57;2.83;;;;;;;;;;5012264;28;20022;-76
2022/02/21 14:21:57;;;;;;;10.52;2.75;;;;;;;;;;5013545;28;20029;-76
2022/02/21 14:24:24;;;;;;;8.85;2.22;;;;;;;;;;5013333;28;20040;-76
2022/02/21 14:26:50;;;;;;;7.75;2.22;;;;;;;;;;5012352;28;20104;-76
2022/02/21 14:29:16;;;;;;;8.52;2.65;;;;;;;;;;5012986;28;20033;-76
2022/02/21 14:31:43;;;;;;;8.80;2.50;;;;;;;;;;5012298;28;20030;-76
2022/02/21 14:34:09;;;;;;;6.93;2.13;;;;;;;;;;5013451;28;20029;-76
2022/02/21 14:36:35;;;;;;;7.55;2.53;;;;;;;;;;5013254;28;20025;-76